createdAt,value
2023-05-10T00:07:04.691Z,0
2023-05-10T00:19:04.624Z,0
2023-05-10T00:31:04.557Z,0
2023-05-10T00:43:04.542Z,0
2023-05-10T00:55:04.669Z,0
2023-05-10T01:07:04.715Z,0
2023-05-10T01:19:04.597Z,0
2023-05-10T01:31:04.594Z,0
2023-05-10T01:43:04.708Z,0
2023-05-10T01:55:04.691Z,0
2023-05-10T02:07:04.650Z,0
2023-05-10T02:19:04.595Z,0
2023-05-10T02:31:04.752Z,0
2023-05-10T02:43:04.716Z,0
2023-05-10T02:55:04.663Z,0
2023-05-10T03:07:04.864Z,0
2023-05-10T03:19:04.771Z,0
2023-05-10T03:31:04.801Z,0
2023-05-10T03:43:04.698Z,0
2023-05-10T03:55:04.952Z,0
2023-05-10T04:07:04.865Z,0
2023-05-10T04:19:04.800Z,0
2023-05-10T04:31:04.790Z,0
2023-05-10T04:43:04.907Z,0
2023-05-10T04:55:04.852Z,0
2023-05-10T05:07:04.864Z,0
2023-05-10T05:19:04.748Z,0
2023-05-10T05:31:04.947Z,0
2023-05-10T05:43:04.876Z,0
2023-05-10T05:55:04.857Z,0
2023-05-10T06:07:05.006Z,0
2023-05-10T06:19:05.030Z,0
2023-05-10T06:31:04.918Z,0
2023-05-10T06:43:05.013Z,4
2023-05-10T06:55:05.023Z,2
2023-05-10T07:07:04.996Z,6
2023-05-10T07:19:04.935Z,4
2023-05-10T07:31:04.937Z,7
2023-05-10T07:43:05.081Z,8
2023-05-10T07:55:05.026Z,3
2023-05-10T08:07:04.961Z,0
2023-05-10T08:19:05.046Z,0
2023-05-10T08:31:36.185Z,2
2023-05-10T08:43:05.102Z,4
2023-05-10T08:55:04.992Z,10
2023-05-10T09:07:05.251Z,8
2023-05-10T09:19:05.215Z,4
2023-05-10T09:31:05.148Z,10
2023-05-10T09:43:05.412Z,12
2023-05-10T09:55:05.223Z,17
2023-05-10T10:07:05.279Z,12
2023-05-10T10:19:05.194Z,15
2023-05-10T10:31:05.299Z,14
2023-05-10T10:43:05.277Z,11
2023-05-10T10:55:05.186Z,12
2023-05-10T11:07:05.171Z,12
2023-05-10T11:19:05.358Z,19
2023-05-10T11:31:05.310Z,17
2023-05-10T11:43:05.232Z,21
2023-05-10T11:55:05.214Z,17
2023-05-10T12:07:05.348Z,17
2023-05-10T12:19:05.442Z,26
2023-05-10T12:31:05.250Z,12
2023-05-10T12:43:05.239Z,21
2023-05-10T12:55:05.397Z,19
2023-05-10T13:07:05.363Z,21
2023-05-10T13:19:05.329Z,15
2023-05-10T13:31:05.515Z,23
2023-05-10T13:43:05.400Z,19
2023-05-10T13:55:05.391Z,25
2023-05-10T14:07:05.350Z,20
2023-05-10T14:19:05.669Z,27
2023-05-10T14:31:05.439Z,36
2023-05-10T14:43:05.417Z,28
2023-05-10T14:55:05.355Z,18
2023-05-10T15:07:05.559Z,22
2023-05-10T15:19:05.564Z,21
2023-05-10T15:31:05.461Z,18
2023-05-10T15:43:05.382Z,17
2023-05-10T15:55:05.584Z,14
2023-05-10T16:07:05.568Z,11
2023-05-10T16:19:05.631Z,10
2023-05-10T16:31:05.743Z,13
2023-05-10T16:43:05.676Z,20
2023-05-10T16:55:05.573Z,11
2023-05-10T17:07:05.558Z,15
2023-05-10T17:19:05.589Z,16
2023-05-10T17:31:06.252Z,10
2023-05-10T17:43:05.670Z,29
2023-05-10T17:55:05.594Z,14
2023-05-10T18:07:05.720Z,14
2023-05-10T18:19:05.742Z,22
2023-05-10T18:31:05.660Z,5
2023-05-10T18:43:05.643Z,5
2023-05-10T18:55:05.745Z,12
2023-05-10T19:07:05.756Z,4
2023-05-10T19:19:06.218Z,8
2023-05-10T19:31:06.152Z,6
2023-05-10T19:43:05.790Z,3
2023-05-10T19:55:05.757Z,4
2023-05-10T20:07:05.709Z,2
2023-05-10T20:19:05.850Z,3
2023-05-10T20:31:05.850Z,0
2023-05-10T20:43:05.796Z,0
2023-05-10T20:55:05.769Z,0
2023-05-10T21:07:05.935Z,0
2023-05-10T21:19:05.897Z,0
2023-05-10T21:31:05.935Z,0
2023-05-10T21:43:05.913Z,0
2023-05-10T21:55:05.878Z,0
2023-05-10T22:07:05.796Z,0
2023-05-10T22:19:06.056Z,0
2023-05-10T22:31:05.904Z,0
2023-05-10T22:43:05.870Z,0
2023-05-10T22:55:05.851Z,0
2023-05-10T23:07:06.017Z,0
2023-05-10T23:19:06.029Z,0
2023-05-10T23:31:05.911Z,0
2023-05-10T23:43:06.048Z,0
2023-05-10T23:55:06.069Z,0
